Latest Weather Observations for Middle Point

IDD60901

Issued at 9:31 am CST Saturday 20 December 2014 (issued every 10 minutes, with the page automatically refreshed every 10 minutes)

About weather observations | Map of Darwin area stations | Latest observations for Darwin area | Other Formats
Station Details ID: 014041 Name: MIDDLE POINT Lat: -12.61 Lon: 131.30 Height: 14.1 m
Data from the previous 72 hours. | See also: Recent months at Middle Point
Date/Time
CST
Tmp

°C
App
Tmp
°C
Dew
Point
°C
Rel
Hum
%
Delta-T

°C
Wind Press
QNH
hPa
Press
MSL
hPa
Rain
since
9 am
mm
Dir
 
Spd
km/h
Gust
km/h
Spd
kts
Gust
kts
20/09:30am 28.6 32.9 23.3 73 3.6 SSE 6 7 3 4 1010.2 1010.1 0.0
20/09:00am 27.3 31.2 22.9 77 3.0 SSE 7 9 4 5 1010.4 1010.3 13.4
20/08:30am 26.4 29.8 22.7 80 2.5 SSW 9 13 5 7 1010.2 1010.1 13.4
20/08:00am 26.1 30.4 23.6 86 1.7 S 7 11 4 6 1010.2 1010.1 13.4
20/07:30am 25.9 30.1 23.4 86 1.7 S 7 13 4 7 1009.8 1009.7 13.4
20/07:00am 26.1 29.6 23.6 86 1.7 SSE 11 15 6 8 1009.8 1009.7 13.4
20/06:30am 26.1 30.3 24.1 89 1.4 W 9 15 5 8 1009.9 1009.8 13.4
20/06:00am 26.0 30.5 24.0 89 1.4 SSW 7 9 4 5 1009.0 1008.9 13.4
20/05:30am 26.1 29.9 24.1 89 1.4 SSW 11 15 6 8 1008.1 1008.0 13.4
20/05:00am 26.0 31.2 24.2 90 1.2 S 4 7 2 4 1008.1 1008.0 13.4
20/04:30am 26.1 32.1 24.3 90 1.2 CALM 0 2 0 1 1008.1 1008.0 13.4
20/04:00am 26.2 32.3 24.4 90 1.2 CALM 0 0 0 0 1008.1 1008.0 13.4
20/03:30am 26.2 32.3 24.4 90 1.2 CALM 0 2 0 1 1007.9 1007.8 13.4
20/03:00am 26.2 32.3 24.4 90 1.2 CALM 0 0 0 0 1008.2 1008.1 13.4
20/02:30am 26.1 31.0 24.3 90 1.2 ENE 6 9 3 5 1008.2 1008.1 13.4
20/02:00am 26.3 31.7 24.5 90 1.2 SSW 4 6 2 3 1008.5 1008.4 13.4
20/01:30am 26.1 32.0 24.1 89 1.4 CALM 0 0 0 0 1008.2 1008.1 13.4
20/01:00am 25.9 31.8 24.1 90 1.2 CALM 0 0 0 0 1008.3 1008.2 13.4
20/12:30am 26.3 32.4 24.5 90 1.2 CALM 0 2 0 1 1009.9 1009.8 13.4
20/12:00am 26.3 32.3 24.2 88 1.4 CALM 0 0 0 0 1009.9 1009.8 13.4
 
Date/Time
CST
Tmp

°C
App
Tmp
°C
Dew
Point
°C
Rel
Hum
%
Delta-T

°C
Wind Press
QNH
hPa
Press
MSL
hPa
Rain
since
9 am
mm
Dir
 
Spd
km/h
Gust
km/h
Spd
kts
Gust
kts
19/11:30pm 25.9 30.6 23.9 89 1.4 N 6 7 3 4 1009.9 1009.8 13.4
19/11:00pm 25.8 30.9 24.0 90 1.2 N 4 7 2 4 1010.1 1010.0 13.4
19/10:30pm 25.8 31.6 24.0 90 1.2 CALM 0 0 0 0 1010.2 1010.1 13.4
19/10:00pm 26.3 32.3 24.2 88 1.4 CALM 0 0 0 0 1009.7 1009.6 13.4
19/09:30pm 26.1 30.9 24.1 89 1.4 SSW 6 7 3 4 1009.4 1009.3 13.4
19/09:00pm 26.3 32.1 24.0 87 1.6 CALM 0 0 0 0 1008.8 1008.7 13.4
19/08:30pm 26.5 32.3 24.0 86 1.7 CALM 0 0 0 0 1008.4 1008.3 13.4
19/08:00pm 26.7 31.3 23.8 84 2.0 WNW 6 7 3 4 1007.6 1007.5 13.4
19/07:30pm 28.2 33.1 25.2 84 2.1 WSW 9 15 5 8 1007.6 1007.5 13.4
19/07:00pm 28.1 34.6 25.7 87 1.7 W 2 7 1 4 1007.6 1007.5 13.4
19/06:30pm 28.3 34.3 25.5 85 2.0 WSW 4 6 2 3 1006.7 1006.6 13.4
19/06:00pm 28.5 34.1 25.5 84 2.1 WSW 6 6 3 3 1006.4 1006.3 13.4
19/05:30pm 28.8 34.4 25.8 84 2.1 WNW 7 9 4 5 1005.9 1005.8 13.4
19/05:00pm 28.7 33.6 25.3 82 2.4 NNW 9 11 5 6 1005.7 1005.6 13.4
19/04:30pm 28.5 34.2 26.5 89 1.4 NNW 9 13 5 7 1005.9 1005.8 13.4
19/04:00pm 27.0 30.6 23.7 82 2.3 NNW 11 24 6 13 1006.1 1006.0 13.4
19/03:44pm 29.9 30.8 23.3 67 4.5 N 24 56 13 30 1005.8 1005.7 1.8
19/03:30pm 36.0 39.7 24.6 52 8.1 NNW 13 19 7 10 1005.9 1005.8 0.8
19/03:00pm 36.4 41.3 25.3 53 7.9 NNW 9 19 5 10 1006.3 1006.2 0.8
19/02:30pm 35.2 40.0 24.5 54 7.6 NNW 7 13 4 7 1006.9 1006.8 0.8
19/02:00pm 35.5 40.3 25.1 55 7.4 W 9 13 5 7 1007.6 1007.5 0.8
19/01:30pm 34.0 39.2 25.7 62 5.9 WNW 9 15 5 8 1008.2 1008.1 0.8
19/01:00pm 32.4 39.2 26.7 72 4.1 WNW 4 9 2 5 1008.7 1008.6 0.8
19/12:30pm 33.5 39.1 24.9 60 6.1 WSW 4 11 2 6 1009.1 1009.0 0.0
19/12:00pm 34.9 39.9 24.8 55 7.2 NW 7 13 4 7 1009.4 1009.3 0.0
19/11:30am 34.2 38.9 23.9 55 7.2 SE 6 9 3 5 1010.0 1009.9 0.0
19/11:00am 33.5 39.1 24.9 60 6.1 S 4 11 2 6 1010.3 1010.2 0.0
19/10:30am 34.3 40.6 26.0 62 6.0 E 4 17 2 9 1010.5 1010.4 0.0
19/10:00am 33.1 39.8 25.9 66 5.1 NNE 2 6 1 3 1010.7 1010.6 0.0
19/09:30am 32.1 38.2 25.7 69 4.6 WNW 4 6 2 3 1010.9 1010.7 0.0
19/09:00am 31.7 38.3 25.3 69 4.5 CALM 0 0 0 0 1010.6 1010.5 0.6
19/08:30am 30.5 37.5 25.8 76 3.3 CALM 0 2 0 1 1010.7 1010.6 0.6
19/08:00am 29.3 36.2 25.7 81 2.5 CALM 0 0 0 0 1010.5 1010.4 0.6
19/07:30am 28.0 35.2 26.2 90 1.3 CALM 0 0 0 0 1010.1 1010.0 0.6
19/07:00am 27.0 33.8 25.6 92 1.0 CALM 0 2 0 1 1009.7 1009.6 0.6
19/06:30am 26.6 32.7 25.0 91 1.1 E 2 7 1 4 1009.6 1009.5 0.6
19/06:00am 26.9 33.5 25.3 91 1.1 CALM 0 0 0 0 1009.0 1008.9 0.6
19/05:30am 26.8 33.4 25.2 91 1.1 CALM 0 0 0 0 1008.8 1008.7 0.6
19/05:00am 26.6 33.2 25.2 92 1.0 CALM 0 0 0 0 1008.4 1008.3 0.6
19/04:30am 26.6 33.1 25.0 91 1.1 CALM 0 0 0 0 1008.1 1008.0 0.6
19/04:00am 26.7 32.8 25.1 91 1.1 NNW 2 4 1 2 1008.2 1008.1 0.6
19/03:30am 26.9 33.5 25.3 91 1.1 CALM 0 0 0 0 1008.2 1008.1 0.6
19/03:00am 26.9 33.5 25.3 91 1.1 CALM 0 0 0 0 1008.4 1008.3 0.6
19/02:30am 27.1 33.7 25.3 90 1.3 CALM 0 0 0 0 1008.7 1008.6 0.6
19/02:00am 26.8 33.3 25.0 90 1.3 CALM 0 2 0 1 1008.8 1008.7 0.6
19/01:30am 26.9 32.7 25.1 90 1.3 NW 4 4 2 2 1008.6 1008.5 0.6
19/01:00am 26.7 32.2 24.7 89 1.4 WNW 4 4 2 2 1008.7 1008.6 0.6
19/12:30am 26.8 32.1 25.0 90 1.3 NNW 6 7 3 4 1008.7 1008.6 0.6
19/12:00am 26.9 32.3 25.1 90 1.3 NNW 6 7 3 4 1008.9 1008.8 0.6
 
Date/Time
CST
Tmp

°C
App
Tmp
°C
Dew
Point
°C
Rel
Hum
%
Delta-T

°C
Wind Press
QNH
hPa
Press
MSL
hPa
Rain
since
9 am
mm
Dir
 
Spd
km/h
Gust
km/h
Spd
kts
Gust
kts
18/11:30pm 27.1 33.0 25.3 90 1.3 NNW 4 4 2 2 1009.0 1008.9 0.6
18/11:00pm 27.2 33.8 25.2 89 1.4 CALM 0 0 0 0 1009.3 1009.2 0.6
18/10:30pm 26.9 32.8 24.7 88 1.5 WNW 2 4 1 2 1009.1 1009.0 0.6
18/10:00pm 27.0 32.6 24.8 88 1.5 NNW 4 6 2 3 1008.7 1008.6 0.6
18/09:30pm 26.9 33.0 24.5 87 1.7 CALM 0 0 0 0 1008.8 1008.7 0.6
18/09:00pm 26.8 32.9 24.5 87 1.6 CALM 0 0 0 0 1008.2 1008.1 0.6
18/08:30pm 27.3 33.6 24.7 86 1.8 CALM 0 0 0 0 1008.3 1008.2 0.6
18/08:00pm 27.4 33.0 24.8 86 1.8 N 4 6 2 3 1007.7 1007.6 0.6
18/07:30pm 28.1 33.2 24.1 79 2.8 SSW 4 6 2 3 1007.7 1007.6 0.6
18/07:00pm 28.8 34.7 24.1 76 3.3 CALM 0 4 0 2 1007.1 1007.0 0.6
18/06:30pm 29.5 33.9 23.4 69 4.2 WSW 6 6 3 3 1006.9 1006.8 0.6
18/06:00pm 30.3 33.0 22.2 62 5.5 W 11 17 6 9 1006.0 1005.9 0.6
18/05:30pm 31.6 34.4 23.7 63 5.5 W 15 19 8 10 1005.9 1005.8 0.6
18/05:00pm 31.9 36.6 25.5 69 4.5 NW 11 17 6 9 1005.9 1005.8 0.6
18/04:30pm 31.8 36.0 24.7 66 5.0 NW 11 19 6 10 1006.1 1006.0 0.6
18/04:00pm 32.4 34.5 23.1 58 6.4 NW 17 24 9 13 1006.2 1006.1 0.6
18/03:30pm 34.2 37.5 24.5 57 6.8 NW 15 20 8 11 1006.4 1006.3 0.6
18/03:00pm 32.5 36.5 25.6 67 4.9 NW 15 20 8 11 1006.8 1006.7 0.4
18/02:30pm 29.3 35.3 24.2 74 3.5 CALM 0 4 0 2 1007.6 1007.5 0.2
18/02:00pm 29.2 31.6 24.3 75 3.4 N 19 28 10 15 1007.9 1007.8 0.2
18/01:30pm 33.2 35.5 23.5 56 6.7 NW 17 24 9 13 1008.0 1007.9 0.2
18/01:00pm 34.4 37.0 24.9 57 6.7 WNW 20 28 11 15 1007.8 1007.7 0.2
18/12:30pm 33.6 38.0 24.5 59 6.4 NW 9 13 5 7 1008.3 1008.2 0.2
18/12:00pm 33.3 38.2 24.7 60 6.1 WNW 7 15 4 8 1009.0 1008.9 0.0
18/11:30am 34.5 37.8 23.8 53 7.5 SW 13 19 7 10 1009.2 1009.1 0.0
18/11:00am 33.6 38.2 24.2 58 6.6 WNW 7 11 4 6 1009.6 1009.5 0.0
18/10:30am 33.7 39.8 25.7 63 5.7 NNW 4 11 2 6 1009.7 1009.6 0.0
18/10:00am 32.6 38.5 25.4 66 5.1 N 4 11 2 6 1009.7 1009.6 0.0
18/09:30am 31.9 37.5 25.7 69 4.4 NNW 7 9 4 5 1009.8 1009.7 0.0
18/09:00am 31.2 37.9 26.5 76 3.4 NNW 4 6 2 3 1009.4 1009.3 27.2
18/08:30am 30.2 37.2 26.4 80 2.7 NW 2 4 1 2 1009.1 1009.0 27.0
18/08:00am 28.8 35.5 26.0 85 2.0 ESE 2 4 1 2 1009.0 1008.9 27.0
18/07:30am 27.9 35.1 26.1 90 1.3 CALM 0 0 0 0 1008.6 1008.5 27.0
18/07:00am 26.4 32.2 25.2 93 0.8 W 4 4 2 2 1008.0 1007.9 27.0
18/06:30am 25.5 31.4 24.1 92 1.0 CALM 0 0 0 0 1007.5 1007.4 27.0
18/06:00am 26.1 32.4 24.7 92 1.0 CALM 0 0 0 0 1007.1 1007.0 27.0
18/05:30am 26.1 32.4 24.7 92 1.0 CALM 0 0 0 0 1006.9 1006.8 27.0
18/05:00am 26.1 32.0 24.7 92 1.0 ENE 2 4 1 2 1006.7 1006.6 27.0
18/04:30am 25.9 31.7 24.5 92 1.0 E 2 2 1 1 1006.4 1006.3 27.0
18/04:00am 26.0 31.5 24.6 92 1.0 ESE 4 4 2 2 1006.3 1006.2 27.0
18/03:30am 26.1 31.6 24.7 92 1.0 SSE 4 4 2 2 1006.3 1006.2 27.0
18/03:00am 26.3 32.3 24.9 92 1.0 NNE 2 4 1 2 1006.3 1006.2 27.0
18/02:30am 26.2 32.0 24.6 91 1.1 NNW 2 2 1 1 1006.3 1006.2 27.0
18/02:00am 26.3 32.7 24.9 92 1.0 CALM 0 0 0 0 1006.4 1006.3 27.0
18/01:30am 26.3 32.2 24.7 91 1.1 NNW 2 2 1 1 1006.6 1006.5 27.0
18/01:00am 26.7 33.2 25.1 91 1.1 CALM 0 0 0 0 1006.8 1006.7 27.0
18/12:30am 26.8 32.1 25.2 91 1.1 N 7 9 4 5 1006.9 1006.8 27.0
18/12:00am 26.6 31.7 25.0 91 1.1 NNW 7 9 4 5 1007.1 1007.0 27.0
 
Date/Time
CST
Tmp

°C
App
Tmp
°C
Dew
Point
°C
Rel
Hum
%
Delta-T

°C
Wind Press
QNH
hPa
Press
MSL
hPa
Rain
since
9 am
mm
Dir
 
Spd
km/h
Gust
km/h
Spd
kts
Gust
kts
17/11:30pm 26.8 32.9 25.0 90 1.3 N 2 4 1 2 1007.7 1007.6 27.0
17/11:00pm 27.1 32.6 25.3 90 1.3 N 6 7 3 4 1008.1 1008.0 27.0
17/10:30pm 27.1 33.0 25.3 90 1.3 NNE 4 6 2 3 1008.1 1008.0 27.0
17/10:00pm 27.1 33.7 25.3 90 1.3 CALM 0 0 0 0 1007.7 1007.6 27.0
17/09:30pm 26.9 32.9 24.9 89 1.4 S 2 4 1 2 1007.7 1007.6 27.0
17/09:00pm 26.8 32.2 25.2 91 1.1 SE 6 9 3 5 1008.1 1008.0 27.0
17/08:30pm 26.7 33.0 24.7 89 1.4 CALM 0 0 0 0 1007.6 1007.5 27.0
17/08:00pm 26.9 32.2 24.9 89 1.4 SE 6 6 3 3 1007.8 1007.7 27.0
17/07:30pm 27.3 32.6 24.9 87 1.7 S 6 7 3 4 1006.9 1006.8 27.0
17/07:00pm 27.9 34.4 25.1 85 2.0 CALM 0 0 0 0 1006.5 1006.4 27.0
17/06:30pm 28.3 33.8 25.3 84 2.1 W 6 7 3 4 1005.3 1005.2 27.0
17/06:00pm 28.5 33.9 25.1 82 2.4 WSW 6 7 3 4 1004.6 1004.5 27.0
17/05:30pm 27.7 32.3 24.7 84 2.1 WNW 9 13 5 7 1004.1 1004.0 27.0
17/05:00pm 27.8 32.2 24.4 82 2.4 NNW 9 11 5 6 1004.2 1004.1 27.0
17/04:30pm 27.9 32.7 24.1 80 2.6 W 6 9 3 5 1004.8 1004.7 27.0
17/04:00pm 27.8 31.7 24.2 81 2.5 W 11 15 6 8 1004.6 1004.5 27.0
17/03:30pm 27.3 31.4 24.6 85 1.9 W 11 15 6 8 1004.5 1004.4 26.8
17/03:00pm 26.3 29.9 23.0 82 2.2 NW 9 13 5 7 1004.5 1004.4 26.8
17/02:30pm 26.0 28.1 23.7 87 1.6 NNW 19 26 10 14 1005.0 1004.9 26.8
17/02:00pm 24.2 - - - - SE 28 43 15 23 1006.5 1006.4 22.2
17/01:49pm 27.0 27.1 21.1 70 3.9 ENE 22 50 12 27 1006.5 1006.4 7.4
17/01:45pm 29.8 31.1 21.7 61 5.5 NNE 17 30 9 16 1006.4 1006.3 3.0
17/01:30pm 35.0 36.9 22.7 49 8.5 W 17 24 9 13 1005.4 1005.3 0.0
17/01:00pm 36.1 39.1 22.6 45 9.3 W 11 22 6 12 1005.7 1005.6 0.0
17/12:30pm 35.7 39.6 24.3 51 8.1 W 11 24 6 13 1006.3 1006.2 0.0
17/12:00pm 34.7 38.1 24.6 55 7.1 NW 15 24 8 13 1007.0 1006.9 0.0
17/11:30am 34.1 37.6 23.5 54 7.4 W 11 17 6 9 1007.4 1007.3 0.0
17/11:00am 34.7 39.2 24.6 55 7.1 NNW 9 17 5 9 1007.6 1007.5 0.0
17/10:30am 34.0 38.6 24.8 58 6.5 NW 9 17 5 9 1007.8 1007.7 0.0
17/10:00am 33.7 38.3 25.4 62 5.9 WNW 11 17 6 9 1008.0 1007.9 0.0

Latest Capital City Observations: Canberra | Sydney | Melbourne | Brisbane | Adelaide | Perth | Hobart | Darwin

Other Formats:

Comma delimited format used in spreadsheet applications
http://www.bom.gov.au/fwo/IDD60901/IDD60901.95121.axf

JavaScript Object Notation format (JSON) in row-major order
http://www.bom.gov.au/fwo/IDD60901/IDD60901.95121.json